MMCP/CPE METAR and TAF weather

Enter ICAO airport designator
Station Type Date Time Source
MMCP METAR 2024/04/18 03:40 UTC NOAA

MMCP 180340Z 00000KT 7SM SKC 26/23 A2990 RMK HZY


Station Type Date Time Source
MMCP Decoded METAR 2024/04/18 03:40 UTC NOAA

Campeche, Camp., Mexico (MMCP) 19-51N 090-33W
Apr 17, 2024 - 11:40 PM EDT / 2024.04.18 0340 UTC
Wind: Calm:0
Visibility: 7 mile(s):0
Sky conditions: clear
Temperature: 78 F (26 C)
Dew Point: 73 F (23 C)
Relative Humidity: 83%
Pressure (altimeter): 29.9 in. Hg (1012 hPa)
ob: MMCP 180340Z 00000KT 7SM SKC 26/23 A2990 RMK HZY
cycle: 3

Station Type Date Time Source
MMCP TAF 2024/04/18 18:24 UTC NOAA